Time;durP1;ratioP1;P1;durP2;ratioP2;P2;SDS_P1;SDS_P2;PMS_P1;PMS_P2;Temp;Humidity;BMP_temperature;BMP_pressure;BME280_temperature;BME280_humidity;BME280_pressure;Samples;Min_cycle;Max_cycle;Signal;HPM_P1;HPM_P2
2021/05/14 00:00:43;;;;;;;0.03;0.03;;;13.40;99.90;;;;;;6243959;23;20071;-77
2021/05/14 00:03:08;;;;;;;0.10;0.10;;;13.40;99.90;;;;;;6243975;23;20171;-76
2021/05/14 00:05:35;;;;;;;0.10;0.10;;;13.40;99.90;;;;;;6244348;22;20424;-76
2021/05/14 00:08:02;;;;;;;0.10;0.10;;;13.40;99.90;;;;;;6243968;22;20007;-76
2021/05/14 00:10:29;;;;;;;0.10;0.10;;;13.40;99.90;;;;;;6244183;22;20012;-78
2021/05/14 00:12:55;;;;;;;0.10;0.10;;;13.40;99.90;;;;;;6217190;23;20481;-76
2021/05/14 00:15:21;;;;;;;0.10;0.10;;;13.30;99.90;;;;;;6244242;23;20114;-78
2021/05/14 00:17:49;;;;;;;0.10;0.10;;;13.40;99.90;;;;;;6217487;23;20011;-79
2021/05/14 00:20:14;;;;;;;;;;;13.40;99.90;;;;;;6244436;23;20004;-79
2021/05/14 00:22:40;;;;;;;0.10;0.10;;;13.40;99.90;;;;;;6211545;23;19918;-78
2021/05/14 00:25:07;;;;;;;0.10;0.10;;;13.40;99.90;;;;;;6213336;23;20009;-79
2021/05/14 00:27:33;;;;;;;0.10;0.10;;;13.40;99.90;;;;;;6213781;23;20007;-79
2021/05/14 00:29:58;;;;;;;0.10;0.10;;;13.30;99.90;;;;;;6213315;23;20008;-79
2021/05/14 00:32:24;;;;;;;0.10;0.10;;;13.30;99.90;;;;;;6213614;23;20001;-78
2021/05/14 00:34:50;;;;;;;0.10;0.10;;;13.30;99.90;;;;;;6213290;23;20005;-79
2021/05/14 00:37:16;;;;;;;0.10;0.10;;;13.40;99.90;;;;;;6186916;23;20328;-79
2021/05/14 00:39:43;;;;;;;0.10;0.10;;;13.40;99.90;;;;;;6186628;23;20556;-78
2021/05/14 00:42:09;;;;;;;0.10;0.10;;;13.30;99.90;;;;;;6186993;23;20332;-78
2021/05/14 00:44:40;;;;;;;0.00;0.00;;;13.30;99.90;;;;;;6186605;23;20009;-79
2021/05/14 00:47:09;;;;;;;0.10;0.10;;;13.30;99.90;;;;;;6213591;23;20001;-79
2021/05/14 00:49:35;;;;;;;0.10;0.10;;;13.30;99.90;;;;;;6212967;23;20055;-78
2021/05/14 00:52:01;;;;;;;0.10;0.10;;;13.30;99.90;;;;;;6213338;23;20076;-79
2021/05/14 00:54:29;;;;;;;0.10;0.10;;;13.30;99.90;;;;;;6213121;23;20590;-78
2021/05/14 00:56:55;;;;;;;0.10;0.10;;;13.30;99.90;;;;;;6187040;23;20012;-79
2021/05/14 00:59:21;;;;;;;0.10;0.10;;;13.30;99.90;;;;;;6186167;23;20027;-76
2021/05/14 01:01:48;;;;;;;0.10;0.10;;;13.40;99.90;;;;;;6213639;23;20011;-76
2021/05/14 01:04:13;;;;;;;0.10;0.10;;;13.40;99.90;;;;;;6212725;23;20009;-76
2021/05/14 01:06:39;;;;;;;0.10;0.10;;;13.50;99.90;;;;;;6186979;23;20015;-77
2021/05/14 01:09:05;;;;;;;0.10;0.10;;;13.50;99.90;;;;;;6212805;23;20313;-76
2021/05/14 01:11:32;;;;;;;0.10;0.10;;;13.70;99.90;;;;;;6213541;23;20008;-75
2021/05/14 01:13:57;;;;;;;0.10;0.10;;;13.70;99.90;;;;;;6213137;23;20083;-76
2021/05/14 01:16:27;;;;;;;0.10;0.10;;;13.60;99.90;;;;;;6213497;23;20024;-76
2021/05/14 01:18:54;;;;;;;0.10;0.10;;;13.60;99.90;;;;;;6212681;23;20075;-76
2021/05/14 01:21:20;;;;;;;0.10;0.10;;;13.50;99.90;;;;;;6213101;23;20001;-76
2021/05/14 01:23:46;;;;;;;0.10;0.10;;;13.50;99.90;;;;;;6186001;23;20020;-76
2021/05/14 01:26:14;;;;;;;0.10;0.10;;;13.50;99.90;;;;;;6213284;23;20024;-76
2021/05/14 01:28:40;;;;;;;0.10;0.10;;;13.40;99.90;;;;;;6186316;23;20019;-76
2021/05/14 01:31:06;;;;;;;0.10;0.10;;;13.40;99.90;;;;;;6213244;23;20499;-76
2021/05/14 01:33:32;;;;;;;0.10;0.10;;;13.40;99.90;;;;;;6212866;23;20090;-76
2021/05/14 01:35:59;;;;;;;0.10;0.10;;;13.40;99.90;;;;;;6213242;23;20436;-76
2021/05/14 01:38:25;;;;;;;0.10;0.10;;;13.40;99.90;;;;;;6186164;23;20008;-76
2021/05/14 01:40:51;;;;;;;0.10;0.10;;;13.50;99.90;;;;;;6212999;23;20001;-76
2021/05/14 01:43:17;;;;;;;0.10;0.10;;;13.50;99.90;;;;;;6212825;23;20012;-76
2021/05/14 01:45:43;;;;;;;0.10;0.10;;;13.50;99.90;;;;;;6186463;23;20013;-76
2021/05/14 01:48:08;;;;;;;0.10;0.10;;;13.50;99.90;;;;;;6212574;23;20005;-76
2021/05/14 01:50:35;;;;;;;0.10;0.10;;;13.60;99.90;;;;;;6213065;23;20001;-76
2021/05/14 01:53:00;;;;;;;0.10;0.10;;;13.60;99.90;;;;;;6212796;23;20001;-76
2021/05/14 01:55:26;;;;;;;0.10;0.10;;;13.70;99.90;;;;;;6186286;23;20386;-76
2021/05/14 01:57:52;;;;;;;0.00;0.00;;;13.70;99.90;;;;;;6213160;23;19997;-76
2021/05/14 02:00:18;;;;;;;0.10;0.10;;;13.80;99.90;;;;;;6212973;23;20336;-77
2021/05/14 02:02:44;;;;;;;0.10;0.10;;;13.80;99.90;;;;;;6213105;23;20075;-75
2021/05/14 02:05:10;;;;;;;0.10;0.10;;;13.80;99.90;;;;;;6185838;23;20032;-76
2021/05/14 02:07:35;;;;;;;0.10;0.10;;;13.80;99.90;;;;;;6213092;23;20067;-76
2021/05/14 02:10:02;;;;;;;0.10;0.10;;;13.80;99.90;;;;;;6211693;23;20028;-75
2021/05/14 02:12:27;;;;;;;0.10;0.10;;;13.80;99.90;;;;;;6186585;23;20440;-77
2021/05/14 02:14:53;;;;;;;0.10;0.10;;;13.80;99.90;;;;;;6186207;23;20324;-77
2021/05/14 02:17:19;;;;;;;0.10;0.10;;;13.80;99.90;;;;;;6212848;23;20004;-77
2021/05/14 02:19:44;;;;;;;0.10;0.10;;;13.80;99.90;;;;;;6186024;23;20086;-77
2021/05/14 02:22:10;;;;;;;0.10;0.10;;;13.80;99.90;;;;;;6213071;23;20008;-77
2021/05/14 02:24:36;;;;;;;0.10;0.10;;;13.80;99.90;;;;;;6241790;22;20078;-77
2021/05/14 02:27:03;;;;;;;0.10;0.10;;;13.80;99.90;;;;;;6216364;23;20011;-76
2021/05/14 02:29:33;;;;;;;;;;;13.80;99.90;;;;;;6243340;23;20007;-76
2021/05/14 02:31:59;;;;;;;0.10;0.10;;;13.80;99.90;;;;;;6243531;23;20303;-76
2021/05/14 02:34:25;;;;;;;0.10;0.10;;;13.70;99.90;;;;;;6244487;23;19996;-76
2021/05/14 02:36:50;;;;;;;0.10;0.10;;;13.70;99.90;;;;;;6245271;23;20427;-76
2021/05/14 02:39:16;;;;;;;0.10;0.10;;;13.70;99.90;;;;;;6244438;23;20004;-76
2021/05/14 02:41:41;;;;;;;0.10;0.10;;;13.80;99.90;;;;;;6245319;22;20004;-76
2021/05/14 02:44:07;;;;;;;0.10;0.10;;;13.80;99.90;;;;;;6244575;22;20009;-76
2021/05/14 02:46:34;;;;;;;0.10;0.10;;;13.70;99.90;;;;;;6217207;23;20498;-77
2021/05/14 02:49:00;;;;;;;0.10;0.10;;;13.70;99.90;;;;;;6244457;23;20000;-76
2021/05/14 02:51:26;;;;;;;0.10;0.10;;;13.70;99.90;;;;;;6245069;23;19997;-76
2021/05/14 02:53:51;;;;;;;0.10;0.10;;;13.70;99.90;;;;;;6244312;22;20015;-76
2021/05/14 02:56:18;;;;;;;0.10;0.10;;;13.70;99.90;;;;;;6218066;23;20004;-76
2021/05/14 02:58:44;;;;;;;0.10;0.10;;;13.70;99.90;;;;;;6244398;23;19996;-76
2021/05/14 03:01:09;;;;;;;0.10;0.10;;;13.70;99.90;;;;;;6218065;23;20008;-76
2021/05/14 03:03:35;;;;;;;0.10;0.10;;;13.70;99.90;;;;;;6217509;23;20475;-76
2021/05/14 03:06:01;;;;;;;0.10;0.10;;;13.70;99.90;;;;;;6244619;23;20000;-76
2021/05/14 03:08:27;;;;;;;0.10;0.10;;;13.70;99.90;;;;;;6244688;23;20098;-76
2021/05/14 03:10:52;;;;;;;0.10;0.10;;;13.70;99.90;;;;;;6218038;23;20000;-76
2021/05/14 03:13:18;;;;;;;0.10;0.10;;;13.70;99.90;;;;;;6244553;23;20000;-76
2021/05/14 03:15:44;;;;;;;0.10;0.10;;;13.70;99.90;;;;;;6244708;22;20430;-76
2021/05/14 03:18:10;;;;;;;0.10;0.10;;;13.70;99.90;;;;;;6217425;23;20012;-76
2021/05/14 03:20:35;;;;;;;0.10;0.10;;;13.70;99.90;;;;;;6244749;22;19992;-76
2021/05/14 03:23:02;;;;;;;0.10;0.10;;;13.70;99.90;;;;;;6217483;22;20473;-76
2021/05/14 03:25:28;;;;;;;0.10;0.10;;;13.70;99.90;;;;;;6244751;23;20012;-76
2021/05/14 03:27:53;;;;;;;0.10;0.10;;;13.70;99.90;;;;;;6244276;22;20006;-76
2021/05/14 03:30:19;;;;;;;0.10;0.10;;;13.80;99.90;;;;;;6217763;23;20011;-76
2021/05/14 03:32:45;;;;;;;0.10;0.10;;;13.90;99.90;;;;;;6217754;23;20323;-76
2021/05/14 03:35:12;;;;;;;0.10;0.10;;;14.00;99.90;;;;;;6217279;23;20299;-76
2021/05/14 03:37:37;;;;;;;0.00;0.00;;;14.10;99.90;;;;;;6244595;22;20063;-76
2021/05/14 03:40:15;;;;;;;0.10;0.10;;;14.10;99.90;;;;;;6217128;23;20370;-76
2021/05/14 03:42:41;;;;;;;;;;;14.10;99.90;;;;;;6245054;23;20075;-76
2021/05/14 03:45:08;;;;;;;0.08;0.08;;;14.20;99.90;;;;;;6243930;22;19953;-76
2021/05/14 03:47:34;;;;;;;0.10;0.10;;;14.10;99.90;;;;;;6217796;23;20004;-76
2021/05/14 03:50:00;;;;;;;0.10;0.10;;;14.10;99.90;;;;;;6243918;22;20004;-76
2021/05/14 03:52:26;;;;;;;0.10;0.10;;;14.00;99.90;;;;;;6244603;23;20003;-76
2021/05/14 03:54:51;;;;;;;0.10;0.10;;;14.10;99.90;;;;;;6243854;23;20004;-76
2021/05/14 03:57:17;;;;;;;0.10;0.10;;;13.90;99.90;;;;;;6244425;23;20003;-76
2021/05/14 03:59:43;;;;;;;0.10;0.10;;;13.70;99.90;;;;;;6243876;23;20000;-76
2021/05/14 04:02:10;;;;;;;0.10;0.10;;;13.60;99.90;;;;;;6244373;22;20327;-76
2021/05/14 04:04:36;;;;;;;0.10;0.10;;;13.50;99.90;;;;;;6243878;22;20039;-76
2021/05/14 04:07:04;;;;;;;0.10;0.10;;;13.60;99.90;;;;;;6244246;23;20007;-76
2021/05/14 04:09:32;;;;;;;0.10;0.10;;;13.50;99.90;;;;;;6243691;23;20007;-76
2021/05/14 04:14:28;;;;;;;0.10;0.10;;;13.50;99.90;;;;;;6217446;23;20485;-76
2021/05/14 04:15:01;;;;;;;0.10;0.10;;;13.40;99.90;;;;;;6242972;23;20008;-76
2021/05/14 04:17:27;;;;;;;0.10;0.10;;;13.40;99.90;;;;;;6217249;23;20004;-76
2021/05/14 04:19:52;;;;;;;0.10;0.10;;;13.30;99.90;;;;;;6243762;23;20006;-76
2021/05/14 04:22:18;;;;;;;0.10;0.10;;;13.20;99.90;;;;;;6217201;22;20374;-76
2021/05/14 04:24:44;;;;;;;0.10;0.10;;;13.10;99.90;;;;;;6243539;23;20012;-75
2021/05/14 04:27:10;;;;;;;0.10;0.10;;;13.10;99.90;;;;;;6244241;23;20000;-76
2021/05/14 04:29:37;;;;;;;0.10;0.10;;;13.10;99.90;;;;;;6243723;22;20075;-77
2021/05/14 04:32:03;;;;;;;0.10;0.10;;;13.00;99.90;;;;;;6244079;22;20003;-77
2021/05/14 04:34:28;;;;;;;0.10;0.10;;;13.10;99.90;;;;;;6243353;23;20004;-77
2021/05/14 04:36:54;;;;;;;0.10;0.10;;;13.10;99.90;;;;;;6243964;23;19996;-77
2021/05/14 04:39:20;;;;;;;0.10;0.10;;;13.10;99.90;;;;;;6243409;23;20449;-77
2021/05/14 04:41:45;;;;;;;0.10;0.10;;;13.10;99.90;;;;;;6243915;22;20003;-77
2021/05/14 04:44:11;;;;;;;0.10;0.10;;;13.10;99.90;;;;;;6243307;23;20065;-77
2021/05/14 04:46:37;;;;;;;0.10;0.10;;;13.20;99.90;;;;;;6243888;23;19996;-76
2021/05/14 04:49:03;;;;;;;0.10;0.10;;;13.30;99.90;;;;;;6243214;22;20011;-77
2021/05/14 04:51:29;;;;;;;0.10;0.10;;;13.30;99.90;;;;;;6243701;22;20001;-76
2021/05/14 04:53:56;;;;;;;0.10;0.10;;;13.40;99.90;;;;;;6243280;23;20024;-77
2021/05/14 04:56:22;;;;;;;0.10;0.10;;;13.40;99.90;;;;;;6243612;23;20382;-78
2021/05/14 04:58:48;;;;;;;0.10;0.10;;;13.50;99.90;;;;;;6243381;23;19996;-77
2021/05/14 05:01:15;;;;;;;0.03;0.03;;;13.40;99.90;;;;;;6243684;23;19999;-77
2021/05/14 05:03:44;;;;;;;;;;;13.50;99.90;;;;;;6243765;23;19999;-78
2021/05/14 05:06:10;;;;;;;0.10;0.10;;;13.50;99.90;;;;;;6216950;23;19904;-77
2021/05/14 05:08:35;;;;;;;0.10;0.10;;;13.60;99.90;;;;;;6243208;22;19996;-78
2021/05/14 05:11:01;;;;;;;0.10;0.10;;;13.60;99.90;;;;;;6243796;23;20012;-77
2021/05/14 05:13:27;;;;;;;0.10;0.10;;;13.60;99.90;;;;;;6243239;23;20000;-77
2021/05/14 05:15:52;;;;;;;0.10;0.10;;;13.60;99.90;;;;;;6243364;23;20008;-77
2021/05/14 05:18:18;;;;;;;0.10;0.10;;;13.60;99.90;;;;;;6241805;23;20054;-77
2021/05/14 05:20:44;;;;;;;0.10;0.10;;;13.60;99.90;;;;;;6215542;23;20008;-76
2021/05/14 05:23:10;;;;;;;0.10;0.10;;;13.60;99.90;;;;;;6241719;22;20012;-77
2021/05/14 05:25:35;;;;;;;0.10;0.10;;;13.60;99.90;;;;;;6242321;22;20007;-77
2021/05/14 05:28:03;;;;;;;0.10;0.10;;;13.70;99.90;;;;;;6241404;23;20020;-77
2021/05/14 05:30:29;;;;;;;0.00;0.00;;;13.70;99.90;;;;;;6241646;23;20376;-77
2021/05/14 05:32:54;;;;;;;0.10;0.10;;;13.70;99.90;;;;;;6214835;23;20019;-77
2021/05/14 05:35:21;;;;;;;0.10;0.10;;;13.60;99.90;;;;;;6243160;23;20031;-76
2021/05/14 05:37:47;;;;;;;0.10;0.10;;;13.70;99.90;;;;;;6216304;23;20004;-76
2021/05/14 05:40:12;;;;;;;0.10;0.10;;;13.70;99.90;;;;;;6215372;23;20008;-77
2021/05/14 05:42:38;;;;;;;0.10;0.10;;;13.70;99.90;;;;;;6243480;23;20075;-79
2021/05/14 05:45:05;;;;;;;0.10;0.10;;;13.80;99.90;;;;;;6243208;22;20008;-78
2021/05/14 05:47:32;;;;;;;0.10;0.10;;;13.90;99.90;;;;;;6216610;22;20016;-78
2021/05/14 05:49:58;;;;;;;0.10;0.10;;;13.90;99.90;;;;;;6215931;23;20007;-78
2021/05/14 05:52:25;;;;;;;0.10;0.10;;;13.90;99.90;;;;;;6242240;23;20015;-78
2021/05/14 05:54:50;;;;;;;0.10;0.10;;;14.00;99.90;;;;;;6213922;23;20008;-78
2021/05/14 05:57:16;;;;;;;0.10;0.10;;;13.90;99.90;;;;;;6240817;23;20075;-78
2021/05/14 05:59:42;;;;;;;0.10;0.10;;;13.90;99.90;;;;;;6213960;23;20012;-78
2021/05/14 06:02:08;;;;;;;0.10;0.10;;;14.00;99.90;;;;;;6214551;23;20415;-78
2021/05/14 06:04:34;;;;;;;0.10;0.10;;;14.00;99.90;;;;;;6240789;23;20454;-78
2021/05/14 06:07:00;;;;;;;0.10;0.10;;;14.00;99.90;;;;;;6215615;23;20000;-78
2021/05/14 06:09:26;;;;;;;0.10;0.10;;;14.00;99.90;;;;;;6244627;22;20320;-78
2021/05/14 06:11:52;;;;;;;0.10;0.10;;;14.10;99.90;;;;;;6245262;22;20419;-78
2021/05/14 06:14:18;;;;;;;0.10;0.10;;;14.10;99.90;;;;;;6244824;22;20000;-77
2021/05/14 06:16:45;;;;;;;0.10;0.10;;;14.10;99.90;;;;;;6245522;23;20087;-77
2021/05/14 06:21:44;;;;;;;0.10;0.10;;;14.10;99.90;;;;;;6248061;22;20053;-77
2021/05/14 06:24:09;;;;;;;0.10;0.10;;;14.20;99.90;;;;;;6244258;22;20107;-77
2021/05/14 06:26:35;;;;;;;0.10;0.10;;;14.30;99.90;;;;;;6245405;23;20082;-76
2021/05/14 06:29:01;;;;;;;0.10;0.10;;;14.40;99.90;;;;;;6217588;23;20000;-77
2021/05/14 06:31:26;;;;;;;0.10;0.10;;;14.50;99.90;;;;;;6245102;22;20335;-76
2021/05/14 06:33:52;;;;;;;0.05;0.05;;;14.60;99.90;;;;;;6244350;22;20065;-76
2021/05/14 06:36:18;;;;;;;0.10;0.10;;;14.60;99.90;;;;;;6244832;22;20071;-75
2021/05/14 06:38:43;;;;;;;0.10;0.10;;;14.70;99.90;;;;;;6217580;23;20004;-76
2021/05/14 06:41:09;;;;;;;0.10;0.10;;;14.80;99.90;;;;;;6245084;23;20419;-77
2021/05/14 06:43:35;;;;;;;0.00;0.00;;;14.90;99.90;;;;;;6217689;23;20004;-76
2021/05/14 06:46:01;;;;;;;0.10;0.10;;;15.00;99.90;;;;;;6218068;23;20012;-77
2021/05/14 06:48:28;;;;;;;0.10;0.10;;;15.20;99.90;;;;;;6217431;23;20077;-79
2021/05/14 06:50:53;;;;;;;0.10;0.10;;;15.30;99.90;;;;;;6244596;22;20032;-76
2021/05/14 06:53:19;;;;;;;0.10;0.10;;;15.60;99.90;;;;;;6217356;23;20007;-77
2021/05/14 06:55:46;;;;;;;0.10;0.10;;;15.70;99.90;;;;;;6244449;22;20337;-78
2021/05/14 06:58:13;;;;;;;0.10;0.10;;;16.00;99.90;;;;;;6244519;22;20027;-77
2021/05/14 07:00:39;;;;;;;0.10;0.10;;;16.20;99.90;;;;;;6244732;22;20450;-82
2021/05/14 07:03:05;;;;;;;0.10;0.10;;;16.40;99.90;;;;;;6244263;22;20228;-77
2021/05/14 07:05:31;;;;;;;0.10;0.10;;;16.70;99.90;;;;;;6244297;23;20015;-77
2021/05/14 07:07:56;;;;;;;0.10;0.10;;;16.80;99.90;;;;;;6244260;23;20003;-77
2021/05/14 07:10:23;;;;;;;0.10;0.10;;;16.90;99.90;;;;;;6242873;22;20007;-77
2021/05/14 07:12:49;;;;;;;0.10;0.10;;;17.00;99.90;;;;;;6216493;23;20373;-76
2021/05/14 07:15:16;;;;;;;0.10;0.10;;;17.20;99.90;;;;;;6243055;23;20007;-76
2021/05/14 07:17:42;;;;;;;0.10;0.10;;;17.40;99.90;;;;;;6243364;22;20374;-76
2021/05/14 07:20:08;;;;;;;0.10;0.10;;;17.50;99.90;;;;;;6242309;22;20089;-76
2021/05/14 07:22:35;;;;;;;0.10;0.10;;;17.60;99.90;;;;;;6242863;23;20435;-76
2021/05/14 07:25:01;;;;;;;0.10;0.10;;;17.70;99.90;;;;;;6244309;23;20090;-76
2021/05/14 07:27:27;;;;;;;0.10;0.10;;;17.90;99.90;;;;;;6244608;23;20327;-76
2021/05/14 07:29:53;;;;;;;0.10;0.10;;;17.80;99.90;;;;;;6244301;22;20004;-76
2021/05/14 07:32:19;;;;;;;0.10;0.10;;;17.50;99.90;;;;;;6217989;23;20087;-76
2021/05/14 07:34:44;;;;;;;0.10;0.10;;;17.40;99.90;;;;;;6244155;22;20000;-76
2021/05/14 07:37:10;;;;;;;0.10;0.10;;;17.40;99.90;;;;;;6244776;22;20087;-76
2021/05/14 07:39:36;;;;;;;0.10;0.10;;;17.40;99.90;;;;;;6243847;22;20022;-77
2021/05/14 07:42:03;;;;;;;0.10;0.10;;;17.30;99.90;;;;;;6244655;23;20335;-76
2021/05/14 07:44:29;;;;;;;0.10;0.10;;;17.20;99.90;;;;;;6243805;22;20016;-76
2021/05/14 07:46:55;;;;;;;0.10;0.10;;;17.40;99.90;;;;;;6244613;23;20370;-76
2021/05/14 07:49:21;;;;;;;0.10;0.10;;;17.40;99.90;;;;;;6216770;23;20011;-76
2021/05/14 07:51:46;;;;;;;0.10;0.10;;;17.40;99.90;;;;;;6242941;22;19992;-77
2021/05/14 07:54:12;;;;;;;0.10;0.10;;;17.50;99.90;;;;;;6242843;22;20126;-77
2021/05/14 07:56:38;;;;;;;0.10;0.10;;;17.40;99.90;;;;;;6242997;22;20447;-77
2021/05/14 07:59:06;;;;;;;0.10;0.10;;;17.20;99.90;;;;;;6216021;23;20015;-77
2021/05/14 08:01:32;;;;;;;0.10;0.10;;;17.30;99.90;;;;;;6243112;23;20004;-77
2021/05/14 08:03:58;;;;;;;0.10;0.10;;;17.40;99.90;;;;;;6215809;23;20050;-77
2021/05/14 08:06:23;;;;;;;0.10;0.10;;;17.40;99.90;;;;;;6240591;22;20343;-77
2021/05/14 08:08:49;;;;;;;0.10;0.10;;;17.40;99.90;;;;;;6239553;23;19996;-76
2021/05/14 08:11:15;;;;;;;0.10;0.10;;;17.20;99.90;;;;;;6240027;22;20007;-76
2021/05/14 08:13:40;;;;;;;0.10;0.10;;;17.10;99.90;;;;;;6213682;22;20131;-77
2021/05/14 08:16:07;;;;;;;0.10;0.10;;;16.90;99.90;;;;;;6240384;22;20043;-75
2021/05/14 08:18:34;;;;;;;0.10;0.10;;;16.80;99.90;;;;;;6212517;22;20031;-76
2021/05/14 08:20:59;;;;;;;0.10;0.10;;;16.80;99.90;;;;;;6239792;23;19993;-76
2021/05/14 08:23:25;;;;;;;0.10;0.10;;;16.80;99.90;;;;;;6239156;22;20095;-77
2021/05/14 08:25:51;;;;;;;0.10;0.10;;;16.60;99.90;;;;;;6239876;22;20004;-76
2021/05/14 08:28:18;;;;;;;0.10;0.10;;;16.60;99.90;;;;;;6239741;23;20004;-76
2021/05/14 08:30:45;;;;;;;0.10;0.10;;;16.70;99.90;;;;;;6212730;23;20018;-77
2021/05/14 08:33:10;;;;;;;;;;;16.90;99.90;;;;;;6240045;23;20062;-77
2021/05/14 08:35:37;;;;;;;0.10;0.10;;;17.10;99.90;;;;;;6239888;23;19911;-77
2021/05/14 08:38:04;;;;;;;0.10;0.10;;;17.20;99.90;;;;;;6239871;22;20015;-77
2021/05/14 08:40:30;;;;;;;0.10;0.10;;;17.20;99.90;;;;;;6213496;23;20082;-76
2021/05/14 08:42:56;;;;;;;0.10;0.10;;;17.30;99.90;;;;;;6240372;22;20101;-76
2021/05/14 08:45:22;;;;;;;0.10;0.10;;;17.20;99.90;;;;;;6238528;23;20020;-77
2021/05/14 08:47:48;;;;;;;0.10;0.10;;;17.20;99.90;;;;;;6240083;22;20024;-77
2021/05/14 08:50:14;;;;;;;0.10;0.10;;;17.30;99.90;;;;;;6238565;22;20000;-78
2021/05/14 08:52:42;;;;;;;0.10;0.10;;;17.30;99.90;;;;;;6238927;23;20431;-76
2021/05/14 08:55:12;;;;;;;0.10;0.10;;;17.20;99.90;;;;;;6238597;22;20048;-77
2021/05/14 08:57:39;;;;;;;0.10;0.10;;;17.10;99.90;;;;;;6238163;22;20079;-76
2021/05/14 09:00:07;;;;;;;0.10;0.10;;;17.40;99.90;;;;;;6237592;23;20000;-77
2021/05/14 09:02:37;;;;;;;0.10;0.10;;;17.80;99.90;;;;;;6238297;22;20489;-76
2021/05/14 09:05:28;;;;;;;0.10;0.10;;;17.90;99.90;;;;;;6237772;23;20016;-77
2021/05/14 09:07:55;;;;;;;0.10;0.10;;;18.10;99.90;;;;;;6237851;22;20308;-77
2021/05/14 09:10:21;;;;;;;;;;;18.20;99.90;;;;;;6212056;23;20004;-76
2021/05/14 09:12:47;;;;;;;0.10;0.10;;;18.80;99.90;;;;;;6213583;22;19900;-77
2021/05/14 09:15:20;;;;;;;0.10;0.10;;;19.10;99.80;;;;;;6239609;23;20061;-77
2021/05/14 09:18:04;;;;;;;0.10;0.10;;;19.10;99.90;;;;;;6240346;23;20126;-78
2021/05/14 09:20:35;;;;;;;0.10;0.10;;;19.20;97.70;;;;;;6239898;22;20480;-77
2021/05/14 09:23:21;;;;;;;0.10;0.10;;;18.70;97.30;;;;;;6238866;23;20023;-78
2021/05/14 09:26:06;;;;;;;0.10;0.10;;;18.40;99.90;;;;;;6213322;23;20014;-77
2021/05/14 09:28:41;;;;;;;0.10;0.10;;;17.80;99.90;;;;;;6239352;22;20031;-77
2021/05/14 09:31:14;;;;;;;0.10;0.10;;;17.50;99.90;;;;;;6213083;23;20163;-77
2021/05/14 09:33:51;;;;;;;0.10;0.10;;;17.50;99.90;;;;;;6212377;22;20255;-77
2021/05/14 09:36:23;;;;;;;0.10;0.10;;;18.00;99.90;;;;;;6239784;23;20001;-78
2021/05/14 09:38:56;;;;;;;0.20;0.20;;;17.90;99.90;;;;;;6239030;22;20004;-77
2021/05/14 09:41:37;;;;;;;0.10;0.10;;;17.50;99.90;;;;;;6240071;23;20027;-76
2021/05/14 09:44:14;;;;;;;0.10;0.10;;;17.60;99.90;;;;;;6241660;23;20023;-77
2021/05/14 09:46:57;;;;;;;0.10;0.10;;;18.00;99.90;;;;;;6242218;23;20423;-78
2021/05/14 09:49:24;;;;;;;0.10;0.10;;;18.10;99.90;;;;;;6241193;23;20030;-77
2021/05/14 09:51:51;;;;;;;;;;;17.90;99.90;;;;;;6242874;22;20000;-78
2021/05/14 09:54:37;;;;;;;0.10;0.10;;;18.00;99.90;;;;;;6241416;23;19904;-78
2021/05/14 09:59:56;;;;;;;0.10;0.10;;;16.90;99.90;;;;;;6241795;23;20011;-77
2021/05/14 10:02:36;;;;;;;0.10;0.10;;;17.20;99.90;;;;;;6241713;23;20100;-78
2021/05/14 10:05:03;;;;;;;0.10;0.10;;;17.40;99.90;;;;;;6241192;22;20023;-78
2021/05/14 10:07:31;;;;;;;0.10;0.10;;;18.00;99.90;;;;;;6241748;23;20078;-78
2021/05/14 10:10:00;;;;;;;0.10;0.10;;;18.60;99.90;;;;;;6241136;22;20012;-78
2021/05/14 10:12:26;;;;;;;0.10;0.10;;;18.50;99.90;;;;;;6241948;23;20386;-78
2021/05/14 10:14:53;;;;;;;0.10;0.10;;;18.20;99.90;;;;;;6241642;23;20047;-78
2021/05/14 10:17:19;;;;;;;0.10;0.10;;;17.80;99.90;;;;;;6241570;23;20076;-78
2021/05/14 10:19:47;;;;;;;0.10;0.10;;;17.80;99.90;;;;;;6241216;22;20001;-78
2021/05/14 10:22:13;;;;;;;0.10;0.10;;;17.50;99.90;;;;;;6214893;23;20003;-77
2021/05/14 10:24:40;;;;;;;0.10;0.10;;;17.40;99.90;;;;;;6213970;23;20401;-77
2021/05/14 10:27:17;;;;;;;0.10;0.10;;;17.30;99.90;;;;;;6215111;23;20008;-77
2021/05/14 10:29:45;;;;;;;0.10;0.10;;;17.20;99.90;;;;;;6240960;22;20008;-78
2021/05/14 10:32:12;;;;;;;0.10;0.10;;;17.00;99.90;;;;;;6241849;23;20006;-78
2021/05/14 10:34:38;;;;;;;0.10;0.10;;;16.80;99.90;;;;;;6240850;22;20042;-78
2021/05/14 10:37:04;;;;;;;0.10;0.10;;;16.80;99.90;;;;;;6241843;23;20000;-77
2021/05/14 10:39:40;;;;;;;0.10;0.10;;;16.90;99.90;;;;;;6240743;22;20004;-77
2021/05/14 10:42:07;;;;;;;0.10;0.10;;;16.90;99.90;;;;;;6241070;22;20416;-77
2021/05/14 10:44:47;;;;;;;;;;;16.90;99.90;;;;;;6214500;23;20008;-77
2021/05/14 10:47:22;;;;;;;0.10;0.10;;;17.10;99.90;;;;;;6241564;22;19938;-78
2021/05/14 10:49:55;;;;;;;0.10;0.10;;;17.20;99.90;;;;;;6240787;22;20046;-78
2021/05/14 10:52:21;;;;;;;0.10;0.10;;;17.40;99.90;;;;;;6241960;22;20004;-78
2021/05/14 10:54:51;;;;;;;0.10;0.10;;;17.40;99.90;;;;;;6213115;23;20339;-78
2021/05/14 10:57:39;;;;;;;0.10;0.10;;;17.80;99.90;;;;;;6241398;23;20000;-77
2021/05/14 11:00:22;;;;;;;0.10;0.10;;;18.00;99.90;;;;;;6240994;22;20004;-77
2021/05/14 11:03:10;;;;;;;0.10;0.10;;;18.00;99.90;;;;;;6241525;22;20028;-78
2021/05/14 11:05:41;;;;;;;0.10;0.10;;;17.80;99.90;;;;;;6240914;22;20016;-78
2021/05/14 11:08:34;;;;;;;0.10;0.10;;;17.60;99.90;;;;;;6240450;23;20313;-77
2021/05/14 11:11:13;;;;;;;0.10;0.10;;;17.20;99.90;;;;;;6241153;22;20004;-78
2021/05/14 11:13:47;;;;;;;0.10;0.10;;;17.40;99.90;;;;;;6240718;22;20000;-78
2021/05/14 11:16:42;;;;;;;0.10;0.10;;;17.40;99.90;;;;;;6241209;22;20323;-77
2021/05/14 11:19:24;;;;;;;0.10;0.10;;;17.60;99.90;;;;;;6240489;23;20004;-78
2021/05/14 11:22:05;;;;;;;0.10;0.10;;;17.70;99.90;;;;;;6214039;23;20039;-79
2021/05/14 11:24:38;;;;;;;0.10;0.10;;;17.70;99.90;;;;;;6239885;23;20070;-78
2021/05/14 11:27:09;;;;;;;0.10;0.10;;;17.70;99.90;;;;;;6214379;23;20087;-78
2021/05/14 11:30:01;;;;;;;0.10;0.10;;;17.70;99.90;;;;;;6240656;22;20038;-77
2021/05/14 11:32:38;;;;;;;0.10;0.10;;;17.70;99.90;;;;;;6239400;22;20075;-78
2021/05/14 11:35:09;;;;;;;0.10;0.10;;;17.80;99.90;;;;;;6238366;23;20452;-77
2021/05/14 11:37:51;;;;;;;0.10;0.10;;;17.90;99.90;;;;;;6240040;22;20372;-78
2021/05/14 11:40:39;;;;;;;0.10;0.10;;;17.90;99.90;;;;;;6239866;22;20004;-78
2021/05/14 11:43:09;;;;;;;0.10;0.10;;;18.10;99.90;;;;;;6239748;22;20084;-78
2021/05/14 11:45:46;;;;;;;0.10;0.10;;;18.10;99.90;;;;;;6213053;23;20019;-78
2021/05/14 11:48:21;;;;;;;0.10;0.10;;;18.00;99.10;;;;;;6239365;22;20041;-77
2021/05/14 11:50:53;;;;;;;0.10;0.10;;;18.00;97.70;;;;;;6239930;22;20000;-77
2021/05/14 11:53:21;;;;;;;0.10;0.10;;;18.00;97.00;;;;;;6239428;22;20000;-78
2021/05/14 11:55:49;;;;;;;0.10;0.10;;;17.90;98.30;;;;;;6240887;23;20511;-78
2021/05/14 11:58:15;;;;;;;0.10;0.10;;;18.20;99.70;;;;;;6240231;22;20484;-78
2021/05/14 12:00:43;;;;;;;0.13;0.13;;;18.40;98.60;;;;;;6213701;22;20008;-78
2021/05/14 12:03:13;;;;;;;0.20;0.20;;;18.90;99.90;;;;;;6240876;22;20443;-77
2021/05/14 12:05:41;;;;;;;0.20;0.20;;;20.80;90.30;;;;;;6214062;22;20020;-77
2021/05/14 12:08:21;;;;;;;0.20;0.20;;;23.20;75.90;;;;;;6241084;22;20082;-78
2021/05/14 12:11:02;;;;;;;0.20;0.20;;;25.00;68.80;;;;;;6239919;22;20336;-79
2021/05/14 12:13:32;;;;;;;0.17;0.17;;;25.80;56.90;;;;;;6239966;22;20007;-79
2021/05/14 12:16:05;;;;;;;0.20;0.20;;;26.00;56.90;;;;;;6213528;23;20340;-79
2021/05/14 12:18:43;;;;;;;0.20;0.20;;;26.50;54.90;;;;;;6240481;22;20024;-78
2021/05/14 12:21:14;;;;;;;0.20;0.20;;;26.60;54.00;;;;;;6240263;22;20498;-77
2021/05/14 12:23:41;;;;;;;0.20;0.20;;;27.80;51.40;;;;;;6212945;22;20024;-78
2021/05/14 12:26:08;;;;;;;0.20;0.20;;;28.20;53.20;;;;;;6213476;23;20386;-79
2021/05/14 12:28:42;;;;;;;0.40;0.40;;;28.70;50.50;;;;;;6238076;22;20000;-78
2021/05/14 12:31:12;;;;;;;0.40;0.40;;;29.80;47.10;;;;;;6238630;22;19996;-78
2021/05/14 12:34:10;;;;;;;0.40;0.40;;;31.10;43.60;;;;;;6238192;23;20417;-78
2021/05/14 12:36:41;;;;;;;0.38;0.38;;;30.80;43.50;;;;;;6210228;23;20333;-77
2021/05/14 12:39:13;;;;;;;0.50;0.50;;;31.00;42.70;;;;;;6237243;23;20004;-77
2021/05/14 12:41:41;;;;;;;0.40;0.40;;;31.50;43.30;;;;;;6238395;23;20000;-78
2021/05/14 12:44:09;;;;;;;0.40;0.40;;;31.20;42.30;;;;;;6237818;23;20004;-78
2021/05/14 12:46:36;;;;;;;0.30;0.30;;;30.40;40.90;;;;;;6238949;22;20011;-79
2021/05/14 12:49:10;;;;;;;0.20;0.20;;;30.70;44.00;;;;;;6238241;23;20427;-77
2021/05/14 12:51:36;;;;;;;0.30;0.30;;;31.80;44.00;;;;;;6238128;22;20011;-79
2021/05/14 12:54:02;;;;;;;0.22;0.22;;;32.90;41.60;;;;;;6237609;22;20020;-78
2021/05/14 12:56:28;;;;;;;0.20;0.20;;;31.80;41.70;;;;;;6238069;22;20008;-78
2021/05/14 12:59:00;;;;;;;0.20;0.20;;;31.70;43.10;;;;;;6237971;22;20078;-78